Time;durP1;ratioP1;P1;durP2;ratioP2;P2;SDS_P1;SDS_P2;PMS_P1;PMS_P2;Temp;Humidity;BMP_temperature;BMP_pressure;BME280_temperature;BME280_humidity;BME280_pressure;Samples;Min_cycle;Max_cycle;Signal;HPM_P1;HPM_P2
2024/01/28 00:02:01;;;;;;;18.15;3.47;;;;;;;9.44;100.00;100791.94;5061655;28;20053;-72
2024/01/28 00:04:28;;;;;;;15.88;3.22;;;;;;;9.61;100.00;100801.81;5066803;28;20056;-72
2024/01/28 00:06:54;;;;;;;20.90;4.30;;;;;;;9.26;100.00;100769.81;5054126;28;20053;-72
2024/01/28 00:09:21;;;;;;;20.48;4.60;;;;;;;9.24;100.00;100775.13;5062926;28;20056;-72
2024/01/28 00:11:48;;;;;;;22.02;4.55;;;;;;;9.34;100.00;100775.66;5055470;28;20090;-72
2024/01/28 00:14:15;;;;;;;18.88;3.53;;;;;;;9.30;100.00;100755.78;5064631;28;20422;-72
2024/01/28 00:16:41;;;;;;;21.98;4.32;;;;;;;9.14;100.00;100760.63;5059937;28;20055;-72
2024/01/28 00:19:08;;;;;;;22.52;4.05;;;;;;;9.18;100.00;100753.56;5052802;28;20064;-72
2024/01/28 00:21:35;;;;;;;16.98;3.55;;;;;;;9.05;100.00;100740.03;5051115;28;20113;-72
2024/01/28 00:24:04;;;;;;;25.38;4.40;;;;;;;9.17;100.00;100731.81;5063865;28;20048;-72
2024/01/28 00:26:36;;;;;;;20.25;4.22;;;;;;;9.18;100.00;100730.03;5059517;28;20489;-72
2024/01/28 00:29:03;;;;;;;19.75;3.92;;;;;;;8.95;100.00;100725.53;5058997;28;20478;-72
2024/01/28 00:31:30;;;;;;;15.70;3.63;;;;;;;9.02;100.00;100727.91;5070127;28;20418;-72
2024/01/28 00:33:56;;;;;;;15.85;3.75;;;;;;;9.07;100.00;100741.69;5072072;28;20055;-72
2024/01/28 00:36:23;;;;;;;16.73;3.55;;;;;;;9.03;100.00;100733.97;5077252;28;20052;-72
2024/01/28 00:38:50;;;;;;;21.65;4.82;;;;;;;8.87;100.00;100736.19;5054580;28;20048;-72
2024/01/28 00:41:21;;;;;;;19.33;5.10;;;;;;;8.86;100.00;100734.50;5070027;28;20051;-72
2024/01/28 00:43:49;;;;;;;21.90;4.32;;;;;;;8.75;100.00;100716.56;5070264;28;20383;-72
2024/01/28 00:46:16;;;;;;;20.67;4.22;;;;;;;8.85;100.00;100673.63;5069175;28;20053;-72
2024/01/28 00:48:42;;;;;;;22.83;4.50;;;;;;;9.04;100.00;100665.19;5079558;28;20472;-72
2024/01/28 00:51:09;;;;;;;22.83;3.97;;;;;;;8.60;100.00;100649.16;5068525;28;20478;-72
2024/01/28 00:53:36;;;;;;;23.02;4.88;;;;;;;8.48;100.00;100648.63;5068964;28;20553;-72
2024/01/28 00:56:03;;;;;;;21.90;4.50;;;;;;;8.55;100.00;100647.56;5069345;28;20074;-73
2024/01/28 00:58:30;;;;;;;22.65;5.40;;;;;;;8.82;100.00;100652.81;5070930;28;20412;-72
2024/01/28 01:00:57;;;;;;;23.00;4.72;;;;;;;8.64;100.00;100645.53;5068273;28;20414;-72
2024/01/28 01:03:23;;;;;;;21.27;4.15;;;;;;;8.99;100.00;100657.47;5071048;28;20052;-72
2024/01/28 01:05:50;;;;;;;25.40;6.28;;;;;;;8.93;100.00;100648.09;5073920;28;20055;-72
2024/01/28 01:08:17;;;;;;;21.08;5.43;;;;;;;9.10;100.00;100660.63;5072431;28;20063;-72
2024/01/28 01:10:44;;;;;;;18.33;3.78;;;;;;;8.92;100.00;100628.13;5070870;28;20055;-72
2024/01/28 01:13:11;;;;;;;24.08;4.53;;;;;;;8.71;100.00;100634.00;5071704;28;20052;-72
2024/01/28 01:15:37;;;;;;;21.20;4.53;;;;;;;8.83;100.00;100649.28;5057531;28;20055;-72
2024/01/28 01:18:04;;;;;;;15.07;3.78;;;;;;;8.83;100.00;100636.22;5079944;28;20417;-71
2024/01/28 01:20:32;;;;;;;18.05;4.80;;;;;;;8.68;100.00;100621.06;5059484;28;20093;-73
2024/01/28 01:22:59;;;;;;;17.00;4.25;;;;;;;8.67;100.00;100632.41;5071923;28;20127;-72
2024/01/28 01:25:26;;;;;;;21.75;4.30;;;;;;;8.38;100.00;100633.28;5072301;28;20041;-72
2024/01/28 01:27:53;;;;;;;15.55;4.13;;;;;;;8.76;100.00;100624.28;5068930;28;20064;-71
2024/01/28 01:30:20;;;;;;;17.42;4.15;;;;;;;8.89;100.00;100643.03;5066141;28;20053;-71
2024/01/28 01:32:47;;;;;;;13.05;3.50;;;;;;;8.64;100.00;100628.16;5062420;28;20509;-72
2024/01/28 01:35:14;;;;;;;17.83;4.93;;;;;;;8.81;100.00;100638.03;5073207;28;20044;-72
2024/01/28 01:37:41;;;;;;;25.05;4.97;;;;;;;8.66;100.00;100636.78;5073328;28;20139;-73
2024/01/28 01:40:08;;;;;;;20.05;4.38;;;;;;;8.77;100.00;100627.75;5071866;28;20136;-72
2024/01/28 01:42:35;;;;;;;18.77;4.15;;;;;;;8.74;100.00;100624.31;5072222;28;20045;-72
2024/01/28 01:45:02;;;;;;;14.90;3.72;;;;;;;8.71;100.00;100626.19;5072438;28;20051;-72
2024/01/28 01:47:29;;;;;;;17.38;3.90;;;;;;;8.76;100.00;100605.16;5072599;28;20056;-71
2024/01/28 01:49:56;;;;;;;21.60;4.00;;;;;;;8.64;100.00;100622.94;5072075;28;20135;-72
2024/01/28 01:52:23;;;;;;;16.80;3.92;;;;;;;8.73;100.00;100612.19;5067889;28;20387;-72
2024/01/28 01:54:51;;;;;;;18.10;4.10;;;;;;;8.85;100.00;100594.41;5063784;28;20542;-72
2024/01/28 01:57:20;;;;;;;19.58;4.47;;;;;;;8.61;100.00;100580.41;5072182;28;20391;-71
2024/01/28 01:59:48;;;;;;;27.50;4.28;;;;;;;8.68;100.00;100556.66;5071930;28;20171;-72
2024/01/28 02:02:16;;;;;;;13.43;3.83;;;;;;;8.85;100.00;100558.72;5072495;28;20059;-72
2024/01/28 02:04:44;;;;;;;15.35;3.63;;;;;;;8.70;100.00;100560.06;5063717;28;20056;-72
2024/01/28 02:07:10;;;;;;;22.70;3.97;;;;;;;8.66;100.00;100562.84;5066471;28;20044;-71
2024/01/28 02:09:37;;;;;;;16.15;3.92;;;;;;;8.81;100.00;100562.31;5071047;28;20509;-73
2024/01/28 02:12:04;;;;;;;18.02;5.00;;;;;;;8.73;100.00;100565.19;5071643;28;20136;-72
2024/01/28 02:14:31;;;;;;;19.17;3.58;;;;;;;8.83;100.00;100570.97;5076635;28;20040;-72
2024/01/28 02:16:59;;;;;;;17.33;4.07;;;;;;;8.83;100.00;100580.56;5071492;28;20049;-72
2024/01/28 02:19:28;;;;;;;14.23;3.55;;;;;;;8.79;100.00;100568.53;5071079;28;20094;-72
2024/01/28 02:21:55;;;;;;;21.90;3.85;;;;;;;8.88;100.00;100569.06;5075204;28;20044;-72
2024/01/28 02:24:22;;;;;;;16.98;3.25;;;;;;;8.76;100.00;100558.16;5061961;28;20477;-73
2024/01/28 02:26:48;;;;;;;13.70;4.30;;;;;;;8.73;100.00;100557.38;5071937;28;20048;-72
2024/01/28 02:29:15;;;;;;;16.42;3.17;;;;;;;8.76;100.00;100553.78;5073348;28;20044;-72
2024/01/28 02:31:44;;;;;;;21.77;4.82;;;;;;;8.82;100.00;100543.16;5071484;28;20436;-72
2024/01/28 02:34:11;;;;;;;19.98;4.03;;;;;;;8.94;100.00;100549.72;5071882;28;20063;-72
2024/01/28 02:36:38;;;;;;;16.38;2.95;;;;;;;8.74;100.00;100550.38;5082052;28;20044;-72
2024/01/28 02:39:05;;;;;;;16.92;4.38;;;;;;;8.70;100.00;100562.69;5070552;28;20401;-72
2024/01/28 02:41:32;;;;;;;22.67;5.20;;;;;;;8.70;100.00;100514.84;5072465;28;20052;-72
2024/01/28 02:43:58;;;;;;;13.45;3.92;;;;;;;8.74;100.00;100525.13;5071293;28;20040;-72
2024/01/28 02:46:25;;;;;;;14.75;3.65;;;;;;;8.76;100.00;100526.84;5070561;28;20048;-70
2024/01/28 02:48:52;;;;;;;21.13;6.22;;;;;;;8.79;100.00;100511.94;5069241;28;20414;-72
2024/01/28 02:51:19;;;;;;;15.15;3.10;;;;;;;8.97;100.00;100505.22;5072400;28;20414;-72
2024/01/28 02:53:45;;;;;;;17.90;3.65;;;;;;;8.80;100.00;100511.03;5071314;28;20084;-72
2024/01/28 02:56:12;;;;;;;13.48;4.10;;;;;;;8.80;100.00;100502.31;5071877;28;20066;-72
2024/01/28 02:58:38;;;;;;;14.82;3.05;;;;;;;8.87;100.00;100496.00;5071404;28;20043;-72
2024/01/28 03:01:05;;;;;;;12.23;3.38;;;;;;;8.81;100.00;100494.44;5070454;28;20131;-72
2024/01/28 03:03:32;;;;;;;13.93;3.85;;;;;;;8.71;100.00;100501.75;5070242;28;20049;-73
2024/01/28 03:05:59;;;;;;;20.13;3.80;;;;;;;8.55;100.00;100496.19;5070682;28;20500;-72
2024/01/28 03:08:25;;;;;;;18.63;3.58;;;;;;;8.55;100.00;100505.75;5069481;28;20052;-72
2024/01/28 03:10:52;;;;;;;13.07;3.50;;;;;;;8.74;100.00;100517.28;5072504;28;20059;-72
2024/01/28 03:13:19;;;;;;;15.18;3.58;;;;;;;8.44;100.00;100515.69;5061743;28;20044;-72
2024/01/28 03:15:45;;;;;;;15.75;3.47;;;;;;;8.85;100.00;100516.09;5075663;28;20497;-72
2024/01/28 03:18:12;;;;;;;14.70;3.08;;;;;;;8.81;100.00;100510.13;5071274;28;20462;-72
2024/01/28 03:20:39;;;;;;;15.90;4.03;;;;;;;8.89;100.00;100513.31;5070229;28;20470;-72
2024/01/28 03:23:06;;;;;;;13.85;2.85;;;;;;;8.87;100.00;100496.00;5055268;28;20049;-71
2024/01/28 03:25:32;;;;;;;9.10;2.40;;;;;;;8.97;100.00;100486.94;5065692;28;20432;-72
2024/01/28 03:27:59;;;;;;;13.95;3.42;;;;;;;8.72;100.00;100477.34;5064029;28;20052;-72
2024/01/28 03:30:26;;;;;;;14.05;3.25;;;;;;;8.97;100.00;100484.34;5058381;28;20057;-72
2024/01/28 03:32:52;;;;;;;13.60;3.42;;;;;;;8.87;100.00;100489.03;5069846;28;20455;-72
2024/01/28 03:35:19;;;;;;;12.88;3.42;;;;;;;8.67;100.00;100470.56;5069959;28;20494;-73
2024/01/28 03:37:46;;;;;;;18.05;4.45;;;;;;;8.70;100.00;100467.88;5060385;28;20051;-72
2024/01/28 03:40:13;;;;;;;11.88;3.20;;;;;;;8.91;100.00;100461.91;5065800;28;20054;-73
2024/01/28 03:42:40;;;;;;;13.75;4.10;;;;;;;9.06;100.00;100470.09;5069711;28;20052;-73
2024/01/28 03:45:09;;;;;;;16.45;4.00;;;;;;;8.66;100.00;100461.06;5077893;28;20047;-73
2024/01/28 03:47:36;;;;;;;15.98;3.25;;;;;;;8.89;100.00;100471.56;5053861;28;20398;-70
2024/01/28 03:50:04;;;;;;;16.33;3.50;;;;;;;8.54;100.00;100464.94;5066944;28;20534;-71
2024/01/28 03:52:31;;;;;;;16.58;3.38;;;;;;;8.60;100.00;100454.25;5069959;28;20091;-71
2024/01/28 03:54:58;;;;;;;19.40;4.35;;;;;;;8.81;100.00;100452.69;5062339;28;20060;-71
2024/01/28 03:57:25;;;;;;;11.77;3.30;;;;;;;8.98;100.00;100456.44;5068420;28;20045;-72
2024/01/28 03:59:51;;;;;;;19.08;4.13;;;;;;;8.64;100.00;100465.44;5064405;28;20052;-71
2024/01/28 04:02:18;;;;;;;12.80;3.38;;;;;;;8.66;100.00;100461.06;5055541;28;20509;-71
2024/01/28 04:04:45;;;;;;;21.52;3.78;;;;;;;8.82;100.00;100456.13;5060109;28;20052;-72
2024/01/28 04:07:12;;;;;;;13.93;3.53;;;;;;;8.68;100.00;100454.88;5060274;28;20045;-72
2024/01/28 04:09:38;;;;;;;17.45;3.67;;;;;;;8.50;100.00;100438.09;5061017;28;20053;-71
2024/01/28 04:12:05;;;;;;;18.73;3.35;;;;;;;8.87;100.00;100438.56;5054183;28;20041;-72
2024/01/28 04:14:32;;;;;;;12.73;2.78;;;;;;;8.90;100.00;100436.69;5064443;28;20468;-72
2024/01/28 04:16:59;;;;;;;19.67;3.85;;;;;;;8.87;100.00;100428.97;5067359;28;20421;-71
2024/01/28 04:19:26;;;;;;;14.10;3.80;;;;;;;8.98;100.00;100412.06;5060337;28;20051;-72
2024/01/28 04:21:52;;;;;;;16.60;3.72;;;;;;;8.69;100.00;100417.44;5053240;28;20148;-72
2024/01/28 04:24:19;;;;;;;14.02;4.22;;;;;;;8.83;100.00;100410.88;5063164;28;20063;-72
2024/01/28 04:26:46;;;;;;;16.42;3.83;;;;;;;8.84;100.00;100402.13;5066422;28;20502;-72
2024/01/28 04:29:12;;;;;;;20.20;3.75;;;;;;;8.99;100.00;100398.09;5059571;28;20056;-71
2024/01/28 04:31:42;;;;;;;12.52;2.58;;;;;;;9.15;100.00;100412.28;5069628;28;20055;-71
2024/01/28 04:34:12;;;;;;;24.35;5.07;;;;;;;8.73;100.00;100390.31;5054537;28;20053;-72
2024/01/28 04:36:39;;;;;;;17.40;3.70;;;;;;;8.86;100.00;100374.22;5064158;28;20481;-72
2024/01/28 04:39:05;;;;;;;23.88;4.43;;;;;;;8.75;100.00;100364.16;5072377;28;20498;-72
2024/01/28 04:41:32;;;;;;;17.17;4.03;;;;;;;8.84;100.00;100369.03;5076249;28;20482;-72
2024/01/28 04:43:59;;;;;;;13.48;3.30;;;;;;;8.84;100.00;100358.59;5063501;28;20070;-72
2024/01/28 04:46:26;;;;;;;12.68;3.17;;;;;;;8.91;100.00;100349.63;5074956;28;20372;-72
2024/01/28 04:48:52;;;;;;;13.77;2.72;;;;;;;8.88;100.00;100349.72;5075143;28;20466;-72
2024/01/28 04:51:19;;;;;;;18.60;3.63;;;;;;;8.93;100.00;100352.19;5076449;28;20071;-71
2024/01/28 04:53:46;;;;;;;14.48;3.10;;;;;;;8.70;100.00;100337.38;5076822;28;20126;-72
2024/01/28 04:56:13;;;;;;;14.52;2.92;;;;;;;8.72;100.00;100339.00;5075557;28;20045;-71
2024/01/28 04:58:39;;;;;;;16.92;4.35;;;;;;;8.72;100.00;100330.31;5077708;28;20052;-71
2024/01/28 05:01:07;;;;;;;14.43;3.25;;;;;;;8.79;100.00;100334.41;5067832;28;20048;-71
2024/01/28 05:03:34;;;;;;;13.02;3.67;;;;;;;8.99;100.00;100319.78;5067297;28;20136;-71
2024/01/28 05:06:04;;;;;;;21.52;4.50;;;;;;;8.83;100.00;100304.66;5074786;28;20052;-71
2024/01/28 05:08:31;;;;;;;16.65;4.30;;;;;;;8.68;100.00;100292.22;5062230;28;20140;-71
2024/01/28 05:10:57;;;;;;;15.57;3.28;;;;;;;8.91;100.00;100294.78;5073861;28;20477;-71
2024/01/28 05:13:24;;;;;;;16.05;5.10;;;;;;;8.47;100.00;100283.41;5060399;28;20713;-71
2024/01/28 05:15:51;;;;;;;15.90;3.67;;;;;;;8.73;100.00;100280.69;5076087;28;20067;-71
2024/01/28 05:18:18;;;;;;;17.85;3.97;;;;;;;8.71;100.00;100266.84;5076314;28;20550;-71
2024/01/28 05:20:45;;;;;;;14.95;3.30;;;;;;;8.74;100.00;100268.47;5074355;28;20051;-71
2024/01/28 05:23:12;;;;;;;14.35;3.83;;;;;;;8.91;100.00;100276.53;5073189;28;20051;-72
2024/01/28 05:25:38;;;;;;;19.63;4.72;;;;;;;8.70;100.00;100269.50;5075574;28;20048;-71
2024/01/28 05:28:07;;;;;;;20.23;4.13;;;;;;;8.62;100.00;100253.28;5065787;28;20045;-72
2024/01/28 05:30:33;;;;;;;22.02;3.70;;;;;;;8.55;100.00;100242.19;5068755;28;20513;-72
2024/01/28 05:33:00;;;;;;;20.42;4.60;;;;;;;8.69;100.00;100233.84;5064303;28;20461;-72
2024/01/28 05:35:30;;;;;;;19.02;3.78;;;;;;;8.49;100.00;100239.84;5074756;28;20102;-71
2024/01/28 05:37:57;;;;;;;14.70;3.45;;;;;;;8.72;100.00;100225.91;5076538;28;20095;-71
2024/01/28 05:40:23;;;;;;;14.18;4.32;;;;;;;8.54;100.00;100219.63;5070412;28;20537;-71
2024/01/28 05:42:50;;;;;;;11.43;3.10;;;;;;;8.58;100.00;100218.59;5067132;28;20044;-72
2024/01/28 05:45:17;;;;;;;16.58;3.28;;;;;;;8.63;100.00;100206.25;5066620;28;20391;-71
2024/01/28 05:47:44;;;;;;;11.95;2.97;;;;;;;8.68;100.00;100193.88;5070664;28;20094;-72
2024/01/28 05:50:10;;;;;;;14.70;3.10;;;;;;;8.80;100.00;100204.72;5073066;28;20125;-72
2024/01/28 05:52:37;;;;;;;13.73;2.97;;;;;;;8.70;100.00;100196.44;5073717;28;20056;-72
2024/01/28 05:55:04;;;;;;;9.52;2.33;;;;;;;8.86;100.00;100192.31;5063306;28;20059;-72
2024/01/28 05:57:31;;;;;;;12.48;2.88;;;;;;;8.60;100.00;100174.19;5062857;28;20505;-72
2024/01/28 05:59:57;;;;;;;12.52;3.03;;;;;;;8.72;100.00;100179.78;5074450;28;20044;-71
2024/01/28 06:02:24;;;;;;;12.32;2.58;;;;;;;8.92;100.00;100183.38;5066980;28;20093;-72
2024/01/28 06:04:51;;;;;;;10.70;3.13;;;;;;;8.88;100.00;100179.19;5060185;28;20147;-72
2024/01/28 06:07:18;;;;;;;12.32;2.72;;;;;;;8.87;100.00;100175.75;5059380;28;20055;-72
2024/01/28 06:09:44;;;;;;;12.50;3.35;;;;;;;8.67;100.00;100160.84;5069499;28;20052;-71
2024/01/28 06:12:11;;;;;;;13.30;4.20;;;;;;;8.78;100.00;100160.41;5058193;28;20107;-72
2024/01/28 06:14:38;;;;;;;14.70;2.95;;;;;;;8.94;100.00;100171.09;5065959;28;20059;-72
2024/01/28 06:17:04;;;;;;;14.10;3.35;;;;;;;8.96;100.00;100156.25;5065564;28;20044;-72
2024/01/28 06:19:31;;;;;;;14.65;3.22;;;;;;;8.98;100.00;100169.22;5068897;28;20051;-71
2024/01/28 06:22:02;;;;;;;12.93;3.53;;;;;;;8.88;100.00;100176.59;5056959;28;20048;-72
2024/01/28 06:24:30;;;;;;;20.10;3.83;;;;;;;8.85;100.00;100179.31;5061520;28;20122;-72
2024/01/28 06:26:57;;;;;;;13.88;3.58;;;;;;;8.76;100.00;100171.84;5063475;28;20045;-71
2024/01/28 06:29:24;;;;;;;16.08;3.13;;;;;;;8.99;100.00;100169.16;5069362;28;20060;-71
2024/01/28 06:31:50;;;;;;;13.18;3.45;;;;;;;9.08;100.00;100157.50;5067216;28;20485;-71
2024/01/28 06:34:18;;;;;;;12.65;3.40;;;;;;;9.08;100.00;100176.66;5067824;28;20063;-72
2024/01/28 06:36:45;;;;;;;15.32;3.00;;;;;;;9.06;100.00;100167.16;5066471;28;20045;-72
2024/01/28 06:39:12;;;;;;;29.35;4.53;;;;;;;8.94;100.00;100158.03;5061370;28;20500;-72
2024/01/28 06:41:41;;;;;;;15.13;3.30;;;;;;;8.89;100.00;100170.47;5071441;28;20088;-72
2024/01/28 06:44:08;;;;;;;13.10;3.00;;;;;;;8.96;100.00;100142.31;5073061;28;20048;-71
2024/01/28 06:46:35;;;;;;;14.23;3.05;;;;;;;8.97;100.00;100149.25;5057242;28;20303;-71
2024/01/28 06:49:03;;;;;;;17.15;4.68;;;;;;;8.58;100.00;100148.16;5071117;28;20061;-72
2024/01/28 06:51:30;;;;;;;13.75;3.33;;;;;;;8.85;100.00;100153.19;5071941;28;20087;-71
2024/01/28 06:53:57;;;;;;;17.83;2.95;;;;;;;8.78;100.00;100136.09;5071807;28;20119;-71
2024/01/28 06:56:24;;;;;;;19.77;3.70;;;;;;;8.88;100.00;100137.41;5059905;28;20060;-72
2024/01/28 06:58:51;;;;;;;13.40;3.50;;;;;;;8.92;100.00;100141.59;5071217;28;20048;-71
2024/01/28 07:01:17;;;;;;;13.95;3.50;;;;;;;8.97;100.00;100137.03;5070765;28;20139;-71
2024/01/28 07:03:44;;;;;;;10.15;2.80;;;;;;;8.87;100.00;100130.47;5071256;28;20061;-71
2024/01/28 07:06:14;;;;;;;9.02;2.70;;;;;;;8.90;100.00;100110.31;5069480;28;20413;-72
2024/01/28 07:08:41;;;;;;;14.43;3.08;;;;;;;8.91;100.00;100114.66;5070520;28;20483;-72
2024/01/28 07:11:08;;;;;;;18.60;3.95;;;;;;;8.93;100.00;100135.47;5062889;28;20041;-71
2024/01/28 07:13:35;;;;;;;15.85;2.72;;;;;;;9.16;100.00;100131.09;5062383;28;20056;-71
2024/01/28 07:16:03;;;;;;;18.42;3.70;;;;;;;9.01;100.00;100130.81;5056258;28;20462;-72
2024/01/28 07:18:29;;;;;;;21.40;4.53;;;;;;;8.84;100.00;100123.66;5058156;28;20102;-71
2024/01/28 07:20:56;;;;;;;20.85;4.30;;;;;;;8.87;100.00;100136.59;5064675;28;20055;-71
2024/01/28 07:23:23;;;;;;;20.23;4.22;;;;;;;9.26;100.00;100135.00;5056657;28;20052;-71
2024/01/28 07:25:50;;;;;;;13.93;3.03;;;;;;;9.41;100.00;100142.19;5055496;28;20083;-71
2024/01/28 07:28:16;;;;;;;15.07;3.67;;;;;;;9.36;100.00;100133.69;5053087;28;20049;-72
2024/01/28 07:30:43;;;;;;;13.63;2.97;;;;;;;9.29;100.00;100143.53;5063914;28;20587;-72
2024/01/28 07:33:10;;;;;;;14.68;3.85;;;;;;;9.32;100.00;100145.19;5062791;28;20056;-72
2024/01/28 07:35:37;;;;;;;12.63;3.15;;;;;;;9.21;100.00;100135.19;5069794;28;20387;-71
2024/01/28 07:38:04;;;;;;;17.45;4.05;;;;;;;9.06;100.00;100147.09;5066424;28;20060;-71
2024/01/28 07:40:31;;;;;;;14.52;3.83;;;;;;;9.04;100.00;100159.38;5068310;28;20049;-71
2024/01/28 07:42:57;;;;;;;18.60;3.15;;;;;;;9.06;100.00;100157.56;5060763;28;20052;-72
2024/01/28 07:45:26;;;;;;;15.85;4.25;;;;;;;8.97;100.00;100147.47;5069509;28;20124;-72
2024/01/28 07:47:53;;;;;;;21.42;4.63;;;;;;;9.11;100.00;100146.94;5058617;28;20044;-72
2024/01/28 07:50:20;;;;;;;21.55;4.65;;;;;;;9.17;100.00;100136.25;5059005;28;20076;-73
2024/01/28 07:52:47;;;;;;;15.63;4.95;;;;;;;9.11;100.00;100129.50;5056051;28;20045;-72
2024/01/28 07:55:14;;;;;;;20.25;4.05;;;;;;;9.11;100.00;100120.81;5055239;28;20060;-72
2024/01/28 07:57:41;;;;;;;18.60;4.88;;;;;;;9.25;100.00;100130.69;5050506;28;20041;-72
2024/01/28 08:00:11;;;;;;;16.45;4.32;;;;;;;9.29;100.00;100116.59;5067968;28;20048;-72
2024/01/28 08:02:38;;;;;;;12.18;4.00;;;;;;;9.23;100.00;100130.75;5058255;28;20157;-71
2024/01/28 08:05:05;;;;;;;18.08;4.22;;;;;;;9.37;100.00;100130.19;5055607;28;20151;-71
2024/01/28 08:07:32;;;;;;;19.50;4.25;;;;;;;9.50;100.00;100133.97;5066794;28;20102;-72
2024/01/28 08:09:59;;;;;;;24.15;4.88;;;;;;;9.24;100.00;100123.75;5062829;28;20049;-71
2024/01/28 08:12:26;;;;;;;19.25;4.90;;;;;;;9.06;100.00;100097.50;5061693;28;20143;-72
2024/01/28 08:14:52;;;;;;;14.05;3.20;;;;;;;9.27;100.00;100121.03;5062708;28;20519;-72
2024/01/28 08:17:19;;;;;;;20.33;4.03;;;;;;;9.37;100.00;100092.75;5050629;28;20067;-71
2024/01/28 08:19:46;;;;;;;14.85;3.60;;;;;;;9.44;100.00;100113.31;5060986;28;20055;-71
2024/01/28 08:22:13;;;;;;;16.83;3.83;;;;;;;9.38;100.00;100100.50;5056881;28;20110;-72
2024/01/28 08:24:39;;;;;;;16.45;3.72;;;;;;;9.40;100.00;100092.59;5051357;28;20056;-71
2024/01/28 08:27:06;;;;;;;13.40;4.10;;;;;;;9.56;100.00;100098.91;5049174;28;20128;-72
2024/01/28 08:29:33;;;;;;;22.00;4.63;;;;;;;9.51;100.00;100103.47;5064577;28;20051;-72
2024/01/28 08:32:00;;;;;;;18.35;4.63;;;;;;;9.48;100.00;100083.53;5068311;28;20052;-72
2024/01/28 08:34:27;;;;;;;18.05;4.47;;;;;;;9.40;100.00;100088.25;5067322;28;20502;-73
2024/01/28 08:36:54;;;;;;;18.67;3.95;;;;;;;9.31;100.00;100076.44;5067599;28;20044;-72
2024/01/28 08:39:21;;;;;;;17.63;4.40;;;;;;;9.41;100.00;100081.25;5066422;28;20052;-72
2024/01/28 08:41:48;;;;;;;20.70;3.60;;;;;;;9.55;100.00;100078.88;5050787;28;20060;-72
2024/01/28 08:44:15;;;;;;;18.20;3.83;;;;;;;9.47;100.00;100075.75;5066396;28;20286;-72
2024/01/28 08:46:42;;;;;;;24.17;4.68;;;;;;;9.52;100.00;100070.34;5058462;28;20053;-72
2024/01/28 08:49:08;;;;;;;33.13;6.07;;;;;;;9.25;100.00;100075.84;5055893;28;20083;-72
2024/01/28 08:51:35;;;;;;;18.40;4.60;;;;;;;9.52;100.00;100072.94;5055613;28;20060;-72
2024/01/28 08:54:02;;;;;;;18.73;4.03;;;;;;;9.49;100.00;100064.34;5054152;28;20479;-72
2024/01/28 08:56:29;;;;;;;20.52;3.88;;;;;;;9.59;100.00;100074.38;5052768;28;20052;-73
2024/01/28 08:58:56;;;;;;;20.38;3.90;;;;;;;9.59;100.00;100064.75;5060251;28;20044;-73
2024/01/28 09:01:23;;;;;;;25.27;4.30;;;;;;;9.48;100.00;100046.09;5053383;28;20497;-72
2024/01/28 09:03:50;;;;;;;16.23;3.60;;;;;;;9.54;100.00;100061.50;5061279;28;20055;-72
2024/01/28 09:06:18;;;;;;;18.38;3.97;;;;;;;9.42;100.00;100060.28;5060759;28;20053;-72
2024/01/28 09:08:45;;;;;;;21.17;4.57;;;;;;;9.40;100.00;100053.41;5062669;28;20044;-72
2024/01/28 09:11:12;;;;;;;20.15;5.40;;;;;;;9.17;100.00;100042.22;5059212;28;20041;-72
2024/01/28 09:13:39;;;;;;;16.10;4.25;;;;;;;9.22;100.00;100034.16;5070565;28;20093;-72
2024/01/28 09:16:06;;;;;;;20.13;4.60;;;;;;;9.47;100.00;100039.16;5054188;28;20064;-72
2024/01/28 09:18:33;;;;;;;18.35;4.00;;;;;;;9.45;100.00;100031.38;5067848;28;20069;-72
2024/01/28 09:20:59;;;;;;;23.88;6.07;;;;;;;9.57;100.00;100023.94;5067164;28;20433;-72
2024/01/28 09:23:26;;;;;;;23.58;5.10;;;;;;;9.39;100.00;100030.84;5064891;28;20099;-72
2024/01/28 09:25:53;;;;;;;22.80;5.20;;;;;;;9.56;100.00;100030.94;5068057;28;20044;-72
2024/01/28 09:28:19;;;;;;;22.33;5.60;;;;;;;9.59;100.00;100020.31;5063763;28;20055;-73
2024/01/28 09:30:46;;;;;;;25.20;5.30;;;;;;;9.72;100.00;100025.88;5059957;28;20053;-72
2024/01/28 09:33:13;;;;;;;25.65;4.57;;;;;;;9.94;100.00;100041.41;5059760;28;20506;-72
2024/01/28 09:35:41;;;;;;;26.95;4.63;;;;;;;9.83;100.00;100018.38;5075126;28;20052;-72
2024/01/28 09:38:08;;;;;;;26.70;5.25;;;;;;;10.02;100.00;100021.00;5065009;28;20522;-72
2024/01/28 09:40:35;;;;;;;25.15;5.13;;;;;;;9.67;100.00;100023.47;5070114;28;20429;-73
2024/01/28 09:43:18;;;;;;;25.90;6.13;;;;;;;9.64;100.00;100026.19;5062868;28;20051;-72
2024/01/28 09:45:45;;;;;;;22.35;6.82;;;;;;;9.53;100.00;100022.38;5059457;28;20193;-73
2024/01/28 09:48:12;;;;;;;30.33;5.90;;;;;;;9.40;100.00;100043.84;5068740;28;20040;-72
2024/01/28 09:50:39;;;;;;;28.85;5.18;;;;;;;9.35;100.00;100037.09;5066763;28;20091;-73
2024/01/28 09:53:06;;;;;;;24.48;5.05;;;;;;;9.44;100.00;100037.56;5059424;28;20063;-72
2024/01/28 09:55:33;;;;;;;31.25;5.90;;;;;;;9.21;100.00;100022.88;5064453;28;20040;-73
2024/01/28 09:58:00;;;;;;;24.05;5.88;;;;;;;9.56;100.00;100045.75;5072671;28;20047;-72
2024/01/28 10:00:27;;;;;;;27.77;5.25;;;;;;;9.48;100.00;100057.41;5068231;28;20056;-73
2024/01/28 10:02:54;;;;;;;28.50;5.18;;;;;;;9.54;100.00;100027.53;5070973;28;20145;-72
2024/01/28 10:05:20;;;;;;;26.60;4.78;;;;;;;9.88;100.00;100041.72;5064849;28;20082;-72
2024/01/28 10:07:48;;;;;;;22.40;5.45;;;;;;;9.54;100.00;100066.72;5051420;28;20484;-72
2024/01/28 10:10:17;;;;;;;31.13;5.40;;;;;;;9.87;100.00;100053.06;5062589;28;20080;-72
2024/01/28 10:12:49;;;;;;;22.00;7.38;;;;;;;9.80;100.00;100044.66;5053955;28;20083;-73
2024/01/28 10:15:18;;;;;;;25.45;5.82;;;;;;;10.03;100.00;100053.22;5065216;28;20049;-72
2024/01/28 10:17:49;;;;;;;24.63;5.35;;;;;;;9.94;100.00;100048.41;5065044;28;20376;-72
2024/01/28 10:20:21;;;;;;;31.33;6.70;;;;;;;9.87;100.00;100064.38;5068915;28;20053;-72
2024/01/28 10:22:48;;;;;;;26.52;5.00;;;;;;;9.76;100.00;100084.94;5071030;28;20044;-72
2024/01/28 10:25:16;;;;;;;28.60;5.30;;;;;;;9.44;100.00;100081.13;5066960;28;20049;-72
2024/01/28 10:27:45;;;;;;;29.70;7.10;;;;;;;9.80;100.00;100067.34;5075735;28;20045;-72
2024/01/28 10:30:13;;;;;;;27.73;6.35;;;;;;;9.50;100.00;100062.56;5067685;28;20827;-72
2024/01/28 10:32:42;;;;;;;36.20;6.00;;;;;;;9.61;100.00;100041.16;5064071;28;20135;-72
2024/01/28 10:35:10;;;;;;;26.52;5.30;;;;;;;9.72;100.00;100030.22;5069561;28;20398;-72
2024/01/28 10:37:38;;;;;;;30.85;6.45;;;;;;;9.72;100.00;100033.72;5069611;28;20127;-72
2024/01/28 10:40:07;;;;;;;23.35;4.95;;;;;;;9.63;100.00;100029.75;5069714;28;20422;-72
2024/01/28 10:42:38;;;;;;;23.00;6.18;;;;;;;10.00;100.00;100025.41;5071546;28;20056;-72
2024/01/28 10:45:07;;;;;;;20.65;4.90;;;;;;;10.25;100.00;100025.16;5068989;28;20356;-72
2024/01/28 10:47:36;;;;;;;17.20;4.80;;;;;;;10.25;100.00;100019.03;5056770;28;20048;-72
2024/01/28 10:50:07;;;;;;;22.10;5.30;;;;;;;10.18;100.00;100021.13;5059367;28;20049;-72
2024/01/28 10:52:38;;;;;;;28.83;5.63;;;;;;;10.06;100.00;100019.09;5068193;28;20312;-72
2024/01/28 10:55:05;;;;;;;26.73;5.35;;;;;;;10.14;100.00;100008.25;5069067;28;20486;-72
2024/01/28 10:57:33;;;;;;;30.95;4.75;;;;;;;10.15;100.00;99987.25;5071944;28;20131;-72
2024/01/28 11:00:00;;;;;;;21.42;5.18;;;;;;;10.01;100.00;99990.50;5074570;28;20052;-72
2024/01/28 11:02:28;;;;;;;26.25;6.80;;;;;;;10.04;100.00;99976.47;5068198;28;20052;-72
2024/01/28 11:04:59;;;;;;;24.00;5.20;;;;;;;10.18;100.00;99981.88;5070775;28;20094;-73
2024/01/28 11:07:26;;;;;;;28.02;4.45;;;;;;;10.27;100.00;99985.81;5070378;28;20509;-72
2024/01/28 11:09:53;;;;;;;26.95;6.40;;;;;;;9.87;100.00;99972.84;5067082;28;20052;-72
2024/01/28 11:12:20;;;;;;;22.55;4.93;;;;;;;9.92;100.00;99970.03;5057853;28;20096;-72
2024/01/28 11:14:47;;;;;;;28.15;5.43;;;;;;;9.95;100.00;99980.38;5073964;28;20098;-72
2024/01/28 11:17:15;;;;;;;31.77;6.28;;;;;;;9.82;100.00;99950.47;5057586;28;20049;-72